MMMA/MAM METAR and TAF weather

Enter ICAO airport designator
Station Type Date Time Source
MMMA METAR 2019/10/21 21:40 UTC NOAA

MMMA 212140Z 33007KT 7SM BKN025CB OVC070 32/27 A2976 RMK 8/33/ HZY BINOVC VRB COND


Station Type Date Time Source
MMMA Decoded METAR 2019/10/21 21:40 UTC NOAA

Matamoros International , Mexico (MMMA) 25-46N 097-32W
Oct 21, 2019 - 05:40 PM EDT / 2019.10.21 2140 UTC
Wind: from the NNW (330 degrees) at 8 MPH (7 KT):0
Visibility: 7 mile(s):0
Sky conditions: overcast
Weather: Cumulonimbus clouds observed
Temperature: 89 F (32 C)
Heat index: 105.6 F (40.9 C):1
Dew Point: 80 F (27 C)
Relative Humidity: 74%
Pressure (altimeter): 29.76 in. Hg (1007 hPa)
ob: MMMA 212140Z 33007KT 7SM BKN025CB OVC070 32/27 A2976 RMK 8/33/ HZY BINOVC VRB COND
cycle: 21

Station Type Date Time Source
MMMA TAF 2019/10/21 20:30 UTC NOAA

TAF
AMD MMMA 212022Z 2120/2218 29005KT P6SM SCT020 OVC030
TEMPO 2121/2201 4SM TSRA BKN015 OVC030
FM220200 02015KT 5SM TSRA BKN015CB
TEMPO 2209/2212 3SM TSRA
FM221500 04018KT P6SM SCT030 BKN200

Example: see airport list